HEIS

Ismailia Airport

Ismailia, Egypt
METAR HEIS 191600Z 01006KT CAVOK 31/22 Q1012
Observed Flight Rules
Sep-19 @ 16:00 UTC (3 hours ago) Visual Flight Rules
Wind Visibility Clouds
10° at 6 knots 10,000+ meters
  • Clear skies
Temperatures Readings
Current 31°C / 88°F
Dewpoint 22°C / 72°F
Humidity 59%
Altimeter 29.88" Hg
Pressure 1012 hPa
Elevation 3
METAR HEIS 191600Z 01006KT CAVOK 31/22 Q1012
Observed Flight Rules
Sep-19 @ 16:00 UTC
(3 hours ago)
VFR
Wind Visibility
10° at 6 knots 10,000+ meters
Clouds
  • Clear skies
Temperature Dewpoint
31°C / 88°F 22°C / 72°F
Humidity Altimeter Pressure
59% 29.88" Hg 1012 hPa